sensor_id;sensor_type;location;lat;lon;timestamp;temperature;humidity
15765;DHT22;7983;50.744;7.086;2022-10-10T00:00:53;10.10;99.90
15765;DHT22;7983;50.744;7.086;2022-10-10T00:03:19;10.10;99.90
15765;DHT22;7983;50.744;7.086;2022-10-10T00:05:45;10.10;99.90
15765;DHT22;7983;50.744;7.086;2022-10-10T00:08:11;10.10;99.90
15765;DHT22;7983;50.744;7.086;2022-10-10T00:10:37;10.10;99.90
15765;DHT22;7983;50.744;7.086;2022-10-10T00:13:03;10.10;99.90
15765;DHT22;7983;50.744;7.086;2022-10-10T00:15:29;10.10;99.90
15765;DHT22;7983;50.744;7.086;2022-10-10T00:17:55;10.10;99.90
15765;DHT22;7983;50.744;7.086;2022-10-10T00:20:21;10.00;99.90
15765;DHT22;7983;50.744;7.086;2022-10-10T00:22:47;10.00;99.90
15765;DHT22;7983;50.744;7.086;2022-10-10T00:25:13;10.00;99.90
15765;DHT22;7983;50.744;7.086;2022-10-10T00:27:38;10.10;99.90
15765;DHT22;7983;50.744;7.086;2022-10-10T00:30:06;10.10;99.90
15765;DHT22;7983;50.744;7.086;2022-10-10T00:32:33;10.10;99.90
15765;DHT22;7983;50.744;7.086;2022-10-10T00:34:59;10.10;99.90
15765;DHT22;7983;50.744;7.086;2022-10-10T00:37:27;10.10;99.90
15765;DHT22;7983;50.744;7.086;2022-10-10T00:39:52;10.00;99.90
15765;DHT22;7983;50.744;7.086;2022-10-10T00:42:20;10.00;99.90
15765;DHT22;7983;50.744;7.086;2022-10-10T00:47:47;10.00;99.90
15765;DHT22;7983;50.744;7.086;2022-10-10T00:50:17;10.00;99.90
15765;DHT22;7983;50.744;7.086;2022-10-10T00:52:44;10.00;99.90
15765;DHT22;7983;50.744;7.086;2022-10-10T00:55:10;9.90;99.90
15765;DHT22;7983;50.744;7.086;2022-10-10T00:57:39;9.90;99.90
15765;DHT22;7983;50.744;7.086;2022-10-10T01:00:08;9.90;99.90
15765;DHT22;7983;50.744;7.086;2022-10-10T01:02:36;9.90;99.90
15765;DHT22;7983;50.744;7.086;2022-10-10T01:05:04;9.80;99.90
15765;DHT22;7983;50.744;7.086;2022-10-10T01:07:30;9.80;99.90
15765;DHT22;7983;50.744;7.086;2022-10-10T01:10:02;9.80;99.90
15765;DHT22;7983;50.744;7.086;2022-10-10T01:18:06;9.70;99.90
15765;DHT22;7983;50.744;7.086;2022-10-10T01:21:03;9.70;99.90
15765;DHT22;7983;50.744;7.086;2022-10-10T01:31:38;9.60;99.90
15765;DHT22;7983;50.744;7.086;2022-10-10T01:41:52;9.60;99.90
15765;DHT22;7983;50.744;7.086;2022-10-10T01:44:22;9.60;99.90
15765;DHT22;7983;50.744;7.086;2022-10-10T01:46:50;9.60;99.90
15765;DHT22;7983;50.744;7.086;2022-10-10T01:49:21;9.60;99.90
15765;DHT22;7983;50.744;7.086;2022-10-10T02:00:14;9.50;99.90
15765;DHT22;7983;50.744;7.086;2022-10-10T02:08:33;9.40;99.90
15765;DHT22;7983;50.744;7.086;2022-10-10T02:11:06;9.40;99.90
15765;DHT22;7983;50.744;7.086;2022-10-10T02:13:40;9.40;99.90
15765;DHT22;7983;50.744;7.086;2022-10-10T02:16:20;9.30;99.90
15765;DHT22;7983;50.744;7.086;2022-10-10T02:18:49;9.40;99.90
15765;DHT22;7983;50.744;7.086;2022-10-10T02:21:17;9.30;99.90
15765;DHT22;7983;50.744;7.086;2022-10-10T02:23:46;9.30;99.90
15765;DHT22;7983;50.744;7.086;2022-10-10T02:26:15;9.30;99.90
15765;DHT22;7983;50.744;7.086;2022-10-10T02:31:20;9.30;99.90
15765;DHT22;7983;50.744;7.086;2022-10-10T02:33:56;9.30;99.90
15765;DHT22;7983;50.744;7.086;2022-10-10T02:36:30;9.20;99.90
15765;DHT22;7983;50.744;7.086;2022-10-10T02:38:57;9.30;99.90
15765;DHT22;7983;50.744;7.086;2022-10-10T02:41:23;9.30;99.90
15765;DHT22;7983;50.744;7.086;2022-10-10T02:43:54;9.20;99.90
15765;DHT22;7983;50.744;7.086;2022-10-10T02:46:21;9.20;99.90
15765;DHT22;7983;50.744;7.086;2022-10-10T02:48:47;9.20;99.90
15765;DHT22;7983;50.744;7.086;2022-10-10T02:51:14;9.20;99.90
15765;DHT22;7983;50.744;7.086;2022-10-10T02:53:43;9.20;99.90
15765;DHT22;7983;50.744;7.086;2022-10-10T02:56:09;9.20;99.90
15765;DHT22;7983;50.744;7.086;2022-10-10T02:58:35;9.20;99.90
15765;DHT22;7983;50.744;7.086;2022-10-10T03:01:03;9.20;99.90
15765;DHT22;7983;50.744;7.086;2022-10-10T03:03:29;9.30;99.90
15765;DHT22;7983;50.744;7.086;2022-10-10T03:05:54;9.20;99.90
15765;DHT22;7983;50.744;7.086;2022-10-10T03:08:22;9.20;99.90
15765;DHT22;7983;50.744;7.086;2022-10-10T03:10:58;9.10;99.90
15765;DHT22;7983;50.744;7.086;2022-10-10T03:13:27;9.10;99.90
15765;DHT22;7983;50.744;7.086;2022-10-10T03:15:53;9.10;99.90
15765;DHT22;7983;50.744;7.086;2022-10-10T03:18:19;9.10;99.90
15765;DHT22;7983;50.744;7.086;2022-10-10T03:20:54;9.10;99.90
15765;DHT22;7983;50.744;7.086;2022-10-10T03:23:22;9.00;99.90
15765;DHT22;7983;50.744;7.086;2022-10-10T03:25:48;9.00;99.90
15765;DHT22;7983;50.744;7.086;2022-10-10T03:28:13;9.00;99.90
15765;DHT22;7983;50.744;7.086;2022-10-10T03:30:39;9.00;99.90
15765;DHT22;7983;50.744;7.086;2022-10-10T03:33:08;9.00;99.90
15765;DHT22;7983;50.744;7.086;2022-10-10T03:35:34;9.00;99.90
15765;DHT22;7983;50.744;7.086;2022-10-10T03:38:00;9.00;99.90
15765;DHT22;7983;50.744;7.086;2022-10-10T03:40:29;9.00;99.90
15765;DHT22;7983;50.744;7.086;2022-10-10T03:42:55;9.00;99.90
15765;DHT22;7983;50.744;7.086;2022-10-10T03:45:21;9.00;99.90
15765;DHT22;7983;50.744;7.086;2022-10-10T03:47:46;9.00;99.90
15765;DHT22;7983;50.744;7.086;2022-10-10T03:50:14;9.00;99.90
15765;DHT22;7983;50.744;7.086;2022-10-10T03:52:42;8.90;99.90
15765;DHT22;7983;50.744;7.086;2022-10-10T03:55:08;9.00;99.90
15765;DHT22;7983;50.744;7.086;2022-10-10T03:57:34;8.90;99.90
15765;DHT22;7983;50.744;7.086;2022-10-10T04:00:04;8.90;99.90
15765;DHT22;7983;50.744;7.086;2022-10-10T04:02:30;8.90;99.90
15765;DHT22;7983;50.744;7.086;2022-10-10T04:04:56;9.00;99.90
15765;DHT22;7983;50.744;7.086;2022-10-10T04:07:21;9.00;99.90
15765;DHT22;7983;50.744;7.086;2022-10-10T04:09:47;9.00;99.90
15765;DHT22;7983;50.744;7.086;2022-10-10T04:12:13;9.00;99.90
15765;DHT22;7983;50.744;7.086;2022-10-10T04:14:38;9.00;99.90
15765;DHT22;7983;50.744;7.086;2022-10-10T04:17:08;9.00;99.90
15765;DHT22;7983;50.744;7.086;2022-10-10T04:19:34;9.00;99.90
15765;DHT22;7983;50.744;7.086;2022-10-10T04:22:06;9.00;99.90
15765;DHT22;7983;50.744;7.086;2022-10-10T04:24:32;9.00;99.90
15765;DHT22;7983;50.744;7.086;2022-10-10T04:26:58;9.10;99.90
15765;DHT22;7983;50.744;7.086;2022-10-10T04:29:23;9.10;99.90
15765;DHT22;7983;50.744;7.086;2022-10-10T04:31:49;9.20;99.90
15765;DHT22;7983;50.744;7.086;2022-10-10T04:34:17;9.10;99.90
15765;DHT22;7983;50.744;7.086;2022-10-10T04:36:43;9.30;99.90
15765;DHT22;7983;50.744;7.086;2022-10-10T04:39:08;9.40;99.90
15765;DHT22;7983;50.744;7.086;2022-10-10T04:41:34;9.40;99.90
15765;DHT22;7983;50.744;7.086;2022-10-10T04:44:00;9.50;99.90
15765;DHT22;7983;50.744;7.086;2022-10-10T04:46:25;9.60;99.90
15765;DHT22;7983;50.744;7.086;2022-10-10T04:48:51;9.70;99.90
15765;DHT22;7983;50.744;7.086;2022-10-10T04:51:17;9.80;99.90
15765;DHT22;7983;50.744;7.086;2022-10-10T04:53:43;9.90;99.90
15765;DHT22;7983;50.744;7.086;2022-10-10T04:56:13;9.90;99.90
15765;DHT22;7983;50.744;7.086;2022-10-10T04:58:39;10.00;99.90
15765;DHT22;7983;50.744;7.086;2022-10-10T05:01:04;10.10;99.90
15765;DHT22;7983;50.744;7.086;2022-10-10T05:03:30;10.10;99.90
15765;DHT22;7983;50.744;7.086;2022-10-10T05:05:57;10.10;99.90
15765;DHT22;7983;50.744;7.086;2022-10-10T05:08:23;10.20;99.90
15765;DHT22;7983;50.744;7.086;2022-10-10T05:10:51;10.20;99.90
15765;DHT22;7983;50.744;7.086;2022-10-10T05:13:18;10.30;99.90
15765;DHT22;7983;50.744;7.086;2022-10-10T05:15:43;10.30;99.90
15765;DHT22;7983;50.744;7.086;2022-10-10T05:18:09;10.30;99.90
15765;DHT22;7983;50.744;7.086;2022-10-10T05:20:35;10.30;99.90
15765;DHT22;7983;50.744;7.086;2022-10-10T05:23:04;10.40;99.90
15765;DHT22;7983;50.744;7.086;2022-10-10T05:25:29;10.40;99.90
15765;DHT22;7983;50.744;7.086;2022-10-10T05:27:55;10.40;99.90
15765;DHT22;7983;50.744;7.086;2022-10-10T05:30:21;10.40;99.90
15765;DHT22;7983;50.744;7.086;2022-10-10T05:32:48;10.40;99.90
15765;DHT22;7983;50.744;7.086;2022-10-10T05:35:14;10.40;99.90
15765;DHT22;7983;50.744;7.086;2022-10-10T05:37:40;10.40;99.90
15765;DHT22;7983;50.744;7.086;2022-10-10T05:40:06;10.50;99.90
15765;DHT22;7983;50.744;7.086;2022-10-10T05:42:32;10.40;99.90
15765;DHT22;7983;50.744;7.086;2022-10-10T05:44:57;10.40;99.90
15765;DHT22;7983;50.744;7.086;2022-10-10T05:47:23;10.40;99.90
15765;DHT22;7983;50.744;7.086;2022-10-10T05:49:52;10.40;99.90
15765;DHT22;7983;50.744;7.086;2022-10-10T05:52:20;10.40;99.90
15765;DHT22;7983;50.744;7.086;2022-10-10T05:54:48;10.40;99.90
15765;DHT22;7983;50.744;7.086;2022-10-10T05:57:16;10.40;99.90
15765;DHT22;7983;50.744;7.086;2022-10-10T05:59:41;10.40;99.90
15765;DHT22;7983;50.744;7.086;2022-10-10T06:02:13;10.50;99.90
15765;DHT22;7983;50.744;7.086;2022-10-10T06:04:38;10.40;99.90
15765;DHT22;7983;50.744;7.086;2022-10-10T06:07:07;10.40;99.90
15765;DHT22;7983;50.744;7.086;2022-10-10T06:09:34;10.50;99.90
15765;DHT22;7983;50.744;7.086;2022-10-10T06:11:59;10.50;99.90
15765;DHT22;7983;50.744;7.086;2022-10-10T06:14:25;10.40;99.90
15765;DHT22;7983;50.744;7.086;2022-10-10T06:16:50;10.50;99.90
15765;DHT22;7983;50.744;7.086;2022-10-10T06:19:18;10.40;99.90
15765;DHT22;7983;50.744;7.086;2022-10-10T06:21:47;10.40;99.90
15765;DHT22;7983;50.744;7.086;2022-10-10T06:24:18;10.40;99.90
15765;DHT22;7983;50.744;7.086;2022-10-10T06:26:43;10.40;99.90
15765;DHT22;7983;50.744;7.086;2022-10-10T06:29:09;10.40;99.90
15765;DHT22;7983;50.744;7.086;2022-10-10T06:31:37;10.50;99.90
15765;DHT22;7983;50.744;7.086;2022-10-10T06:34:05;10.50;99.90
15765;DHT22;7983;50.744;7.086;2022-10-10T06:36:31;10.50;99.90
15765;DHT22;7983;50.744;7.086;2022-10-10T06:38:57;10.50;99.90
15765;DHT22;7983;50.744;7.086;2022-10-10T06:41:25;10.60;99.90
15765;DHT22;7983;50.744;7.086;2022-10-10T06:43:51;10.60;99.90
15765;DHT22;7983;50.744;7.086;2022-10-10T06:46:17;10.70;99.90
15765;DHT22;7983;50.744;7.086;2022-10-10T06:48:47;10.70;99.90
15765;DHT22;7983;50.744;7.086;2022-10-10T06:51:15;10.80;99.90
15765;DHT22;7983;50.744;7.086;2022-10-10T06:53:41;10.80;99.90
15765;DHT22;7983;50.744;7.086;2022-10-10T06:56:13;10.90;99.90
15765;DHT22;7983;50.744;7.086;2022-10-10T06:58:46;10.90;99.90
15765;DHT22;7983;50.744;7.086;2022-10-10T07:01:14;11.00;99.90
15765;DHT22;7983;50.744;7.086;2022-10-10T07:03:41;11.10;99.90
15765;DHT22;7983;50.744;7.086;2022-10-10T07:06:09;11.10;99.90
15765;DHT22;7983;50.744;7.086;2022-10-10T07:08:36;11.20;99.90
15765;DHT22;7983;50.744;7.086;2022-10-10T07:11:02;11.20;99.90
15765;DHT22;7983;50.744;7.086;2022-10-10T07:13:28;11.30;99.90
15765;DHT22;7983;50.744;7.086;2022-10-10T07:15:53;11.40;99.90
15765;DHT22;7983;50.744;7.086;2022-10-10T07:18:22;11.50;99.90
15765;DHT22;7983;50.744;7.086;2022-10-10T07:20:54;11.50;99.90
15765;DHT22;7983;50.744;7.086;2022-10-10T07:23:23;11.60;99.90
15765;DHT22;7983;50.744;7.086;2022-10-10T07:25:48;11.70;99.90
15765;DHT22;7983;50.744;7.086;2022-10-10T07:28:16;11.70;99.90
15765;DHT22;7983;50.744;7.086;2022-10-10T07:30:45;11.80;99.90
15765;DHT22;7983;50.744;7.086;2022-10-10T07:33:11;11.90;99.90
15765;DHT22;7983;50.744;7.086;2022-10-10T07:35:40;12.00;99.90
15765;DHT22;7983;50.744;7.086;2022-10-10T07:38:06;12.10;99.90
15765;DHT22;7983;50.744;7.086;2022-10-10T07:40:34;12.10;99.90
15765;DHT22;7983;50.744;7.086;2022-10-10T07:43:00;12.20;99.90
15765;DHT22;7983;50.744;7.086;2022-10-10T07:45:25;12.40;99.90
15765;DHT22;7983;50.744;7.086;2022-10-10T07:47:53;12.40;99.90
15765;DHT22;7983;50.744;7.086;2022-10-10T07:50:21;12.50;99.90
15765;DHT22;7983;50.744;7.086;2022-10-10T07:52:49;12.60;99.90
15765;DHT22;7983;50.744;7.086;2022-10-10T07:55:15;12.70;99.90
15765;DHT22;7983;50.744;7.086;2022-10-10T07:57:42;12.80;99.90
15765;DHT22;7983;50.744;7.086;2022-10-10T08:00:09;12.90;99.90
15765;DHT22;7983;50.744;7.086;2022-10-10T08:02:35;13.00;99.90
15765;DHT22;7983;50.744;7.086;2022-10-10T08:05:01;13.20;99.90
15765;DHT22;7983;50.744;7.086;2022-10-10T08:07:27;13.30;99.90
15765;DHT22;7983;50.744;7.086;2022-10-10T08:09:52;13.40;99.90
15765;DHT22;7983;50.744;7.086;2022-10-10T08:12:18;13.50;99.90
15765;DHT22;7983;50.744;7.086;2022-10-10T08:14:44;13.60;99.90
15765;DHT22;7983;50.744;7.086;2022-10-10T08:17:09;13.80;99.90
15765;DHT22;7983;50.744;7.086;2022-10-10T08:19:37;13.90;99.90
15765;DHT22;7983;50.744;7.086;2022-10-10T08:22:03;14.10;99.90
15765;DHT22;7983;50.744;7.086;2022-10-10T08:24:28;14.20;99.90
15765;DHT22;7983;50.744;7.086;2022-10-10T08:26:54;14.30;99.90
15765;DHT22;7983;50.744;7.086;2022-10-10T08:29:22;14.40;99.90
15765;DHT22;7983;50.744;7.086;2022-10-10T08:31:51;14.50;99.90
15765;DHT22;7983;50.744;7.086;2022-10-10T08:34:18;14.70;99.90
15765;DHT22;7983;50.744;7.086;2022-10-10T08:36:44;14.80;99.90
15765;DHT22;7983;50.744;7.086;2022-10-10T08:39:10;14.90;99.90
15765;DHT22;7983;50.744;7.086;2022-10-10T08:47:01;15.10;99.90
15765;DHT22;7983;50.744;7.086;2022-10-10T08:52:10;15.30;99.90
15765;DHT22;7983;50.744;7.086;2022-10-10T08:54:40;15.30;99.90
15765;DHT22;7983;50.744;7.086;2022-10-10T08:57:32;15.40;99.90
15765;DHT22;7983;50.744;7.086;2022-10-10T09:00:05;15.50;99.90
15765;DHT22;7983;50.744;7.086;2022-10-10T09:02:57;15.60;99.90
15765;DHT22;7983;50.744;7.086;2022-10-10T09:15:59;16.10;99.90
15765;DHT22;7983;50.744;7.086;2022-10-10T09:21:34;17.10;99.90
15765;DHT22;7983;50.744;7.086;2022-10-10T09:27:05;18.40;99.90
15765;DHT22;7983;50.744;7.086;2022-10-10T09:32:29;19.90;99.90
15765;DHT22;7983;50.744;7.086;2022-10-10T09:37:44;20.90;99.90
15765;DHT22;7983;50.744;7.086;2022-10-10T09:41:05;21.30;99.90
15765;DHT22;7983;50.744;7.086;2022-10-10T09:43:38;21.60;99.90
15765;DHT22;7983;50.744;7.086;2022-10-10T09:46:09;21.80;99.90
15765;DHT22;7983;50.744;7.086;2022-10-10T09:48:41;21.90;99.90
15765;DHT22;7983;50.744;7.086;2022-10-10T09:51:17;21.90;99.90
15765;DHT22;7983;50.744;7.086;2022-10-10T09:53:47;21.90;99.90
15765;DHT22;7983;50.744;7.086;2022-10-10T09:56:28;22.00;99.90
15765;DHT22;7983;50.744;7.086;2022-10-10T09:58:56;22.20;99.90
15765;DHT22;7983;50.744;7.086;2022-10-10T10:01:27;22.30;99.90
15765;DHT22;7983;50.744;7.086;2022-10-10T10:04:15;22.50;99.90
15765;DHT22;7983;50.744;7.086;2022-10-10T10:06:51;22.60;99.90
15765;DHT22;7983;50.744;7.086;2022-10-10T10:09:18;22.70;99.90
15765;DHT22;7983;50.744;7.086;2022-10-10T10:11:54;22.80;99.90
15765;DHT22;7983;50.744;7.086;2022-10-10T10:14:34;22.90;99.90
15765;DHT22;7983;50.744;7.086;2022-10-10T10:19:43;23.10;99.90
15765;DHT22;7983;50.744;7.086;2022-10-10T10:24:47;23.20;99.90
15765;DHT22;7983;50.744;7.086;2022-10-10T10:27:21;23.30;99.90
15765;DHT22;7983;50.744;7.086;2022-10-10T10:29:49;23.40;99.90
15765;DHT22;7983;50.744;7.086;2022-10-10T10:32:43;23.40;99.90
15765;DHT22;7983;50.744;7.086;2022-10-10T10:43:54;23.40;99.90
15765;DHT22;7983;50.744;7.086;2022-10-10T10:51:51;23.30;99.90
15765;DHT22;7983;50.744;7.086;2022-10-10T11:10:53;22.50;99.90
15765;DHT22;7983;50.744;7.086;2022-10-10T11:22:07;22.00;99.90
15765;DHT22;7983;50.744;7.086;2022-10-10T11:27:23;21.70;99.90
15765;DHT22;7983;50.744;7.086;2022-10-10T11:30:05;21.60;99.90
15765;DHT22;7983;50.744;7.086;2022-10-10T11:35:32;21.40;99.90
15765;DHT22;7983;50.744;7.086;2022-10-10T11:38:05;21.40;99.90
15765;DHT22;7983;50.744;7.086;2022-10-10T11:40:43;21.50;99.90
15765;DHT22;7983;50.744;7.086;2022-10-10T11:43:24;21.50;99.90
15765;DHT22;7983;50.744;7.086;2022-10-10T11:45:59;21.70;99.90
15765;DHT22;7983;50.744;7.086;2022-10-10T11:48:28;21.80;99.90
15765;DHT22;7983;50.744;7.086;2022-10-10T11:51:04;22.00;99.90
15765;DHT22;7983;50.744;7.086;2022-10-10T11:53:42;22.20;99.90
15765;DHT22;7983;50.744;7.086;2022-10-10T11:56:38;22.40;99.90
15765;DHT22;7983;50.744;7.086;2022-10-10T11:59:16;22.60;99.90
15765;DHT22;7983;50.744;7.086;2022-10-10T12:01:54;22.80;99.90
15765;DHT22;7983;50.744;7.086;2022-10-10T12:04:21;22.90;99.90
15765;DHT22;7983;50.744;7.086;2022-10-10T12:07:01;23.00;99.90
15765;DHT22;7983;50.744;7.086;2022-10-10T12:09:36;23.00;99.90
15765;DHT22;7983;50.744;7.086;2022-10-10T12:12:17;23.00;99.90
15765;DHT22;7983;50.744;7.086;2022-10-10T12:14:46;22.90;99.90
15765;DHT22;7983;50.744;7.086;2022-10-10T12:17:31;22.90;99.90
15765;DHT22;7983;50.744;7.086;2022-10-10T12:22:39;22.80;99.90
15765;DHT22;7983;50.744;7.086;2022-10-10T12:27:43;22.70;99.90
15765;DHT22;7983;50.744;7.086;2022-10-10T12:32:45;22.70;99.90
15765;DHT22;7983;50.744;7.086;2022-10-10T12:35:37;22.70;99.90
15765;DHT22;7983;50.744;7.086;2022-10-10T12:38:12;22.70;99.90
15765;DHT22;7983;50.744;7.086;2022-10-10T12:43:38;22.70;99.90
15765;DHT22;7983;50.744;7.086;2022-10-10T12:48:36;22.60;99.90
15765;DHT22;7983;50.744;7.086;2022-10-10T12:51:02;22.60;99.90
15765;DHT22;7983;50.744;7.086;2022-10-10T12:53:30;22.50;99.90
15765;DHT22;7983;50.744;7.086;2022-10-10T12:56:00;22.40;99.90
15765;DHT22;7983;50.744;7.086;2022-10-10T12:58:32;22.40;99.90
15765;DHT22;7983;50.744;7.086;2022-10-10T13:01:01;22.30;99.90
15765;DHT22;7983;50.744;7.086;2022-10-10T13:03:45;22.30;99.90
15765;DHT22;7983;50.744;7.086;2022-10-10T13:06:18;22.20;99.90
15765;DHT22;7983;50.744;7.086;2022-10-10T13:08:52;22.20;99.90
15765;DHT22;7983;50.744;7.086;2022-10-10T13:11:19;22.10;99.90
15765;DHT22;7983;50.744;7.086;2022-10-10T13:13:53;22.10;99.90
15765;DHT22;7983;50.744;7.086;2022-10-10T13:16:26;22.10;99.90
15765;DHT22;7983;50.744;7.086;2022-10-10T13:18:58;22.10;99.90
15765;DHT22;7983;50.744;7.086;2022-10-10T13:21:31;22.10;99.90
15765;DHT22;7983;50.744;7.086;2022-10-10T13:24:03;22.20;99.90
15765;DHT22;7983;50.744;7.086;2022-10-10T13:26:32;22.20;99.90
15765;DHT22;7983;50.744;7.086;2022-10-10T13:29:28;22.30;99.90
15765;DHT22;7983;50.744;7.086;2022-10-10T13:32:00;22.40;99.90
15765;DHT22;7983;50.744;7.086;2022-10-10T13:34:31;22.50;99.90
15765;DHT22;7983;50.744;7.086;2022-10-10T13:37:00;22.50;99.90
15765;DHT22;7983;50.744;7.086;2022-10-10T13:39:28;22.50;99.90
15765;DHT22;7983;50.744;7.086;2022-10-10T13:41:54;22.60;99.90
15765;DHT22;7983;50.744;7.086;2022-10-10T13:44:29;22.60;99.90
15765;DHT22;7983;50.744;7.086;2022-10-10T13:46:55;22.60;99.90
15765;DHT22;7983;50.744;7.086;2022-10-10T13:49:24;22.70;99.90
15765;DHT22;7983;50.744;7.086;2022-10-10T13:52:20;22.70;99.90
15765;DHT22;7983;50.744;7.086;2022-10-10T13:54:48;22.70;99.90
15765;DHT22;7983;50.744;7.086;2022-10-10T13:57:18;22.80;99.90
15765;DHT22;7983;50.744;7.086;2022-10-10T13:59:50;22.90;99.90
15765;DHT22;7983;50.744;7.086;2022-10-10T14:02:31;23.00;99.90
15765;DHT22;7983;50.744;7.086;2022-10-10T14:04:58;23.10;99.90
15765;DHT22;7983;50.744;7.086;2022-10-10T14:07:28;23.30;99.90
15765;DHT22;7983;50.744;7.086;2022-10-10T14:10:04;23.40;99.90
15765;DHT22;7983;50.744;7.086;2022-10-10T14:12:57;23.60;99.90
15765;DHT22;7983;50.744;7.086;2022-10-10T14:15:42;23.70;99.90
15765;DHT22;7983;50.744;7.086;2022-10-10T14:18:28;23.70;99.90
15765;DHT22;7983;50.744;7.086;2022-10-10T14:20:56;23.80;99.90
15765;DHT22;7983;50.744;7.086;2022-10-10T14:23:24;23.80;99.90
15765;DHT22;7983;50.744;7.086;2022-10-10T14:25:50;23.80;99.90
15765;DHT22;7983;50.744;7.086;2022-10-10T14:28:18;23.70;99.90
15765;DHT22;7983;50.744;7.086;2022-10-10T14:30:44;23.80;99.90
15765;DHT22;7983;50.744;7.086;2022-10-10T14:33:15;23.80;99.90
15765;DHT22;7983;50.744;7.086;2022-10-10T14:35:44;23.90;99.90
15765;DHT22;7983;50.744;7.086;2022-10-10T14:38:12;24.10;99.90
15765;DHT22;7983;50.744;7.086;2022-10-10T14:40:45;24.10;99.90
15765;DHT22;7983;50.744;7.086;2022-10-10T14:43:13;24.10;99.90
15765;DHT22;7983;50.744;7.086;2022-10-10T14:45:39;24.00;99.90
15765;DHT22;7983;50.744;7.086;2022-10-10T14:48:09;23.90;99.90
15765;DHT22;7983;50.744;7.086;2022-10-10T14:50:44;23.80;99.90
15765;DHT22;7983;50.744;7.086;2022-10-10T14:53:11;23.70;99.90
15765;DHT22;7983;50.744;7.086;2022-10-10T14:55:37;23.60;99.90
15765;DHT22;7983;50.744;7.086;2022-10-10T14:58:13;23.40;99.90
15765;DHT22;7983;50.744;7.086;2022-10-10T15:00:38;23.30;99.90
15765;DHT22;7983;50.744;7.086;2022-10-10T15:03:04;23.20;99.90
15765;DHT22;7983;50.744;7.086;2022-10-10T15:05:30;23.10;99.90
15765;DHT22;7983;50.744;7.086;2022-10-10T15:07:58;23.00;99.90
15765;DHT22;7983;50.744;7.086;2022-10-10T15:10:25;22.90;99.90
15765;DHT22;7983;50.744;7.086;2022-10-10T15:12:51;22.80;99.90
15765;DHT22;7983;50.744;7.086;2022-10-10T15:15:17;22.70;99.90
15765;DHT22;7983;50.744;7.086;2022-10-10T15:17:43;22.70;99.90
15765;DHT22;7983;50.744;7.086;2022-10-10T15:20:10;22.60;99.90
15765;DHT22;7983;50.744;7.086;2022-10-10T15:22:36;22.50;99.90
15765;DHT22;7983;50.744;7.086;2022-10-10T15:25:03;22.40;99.90
15765;DHT22;7983;50.744;7.086;2022-10-10T15:27:32;22.30;99.90
15765;DHT22;7983;50.744;7.086;2022-10-10T15:29:58;22.20;99.90
15765;DHT22;7983;50.744;7.086;2022-10-10T15:32:26;22.10;99.90
15765;DHT22;7983;50.744;7.086;2022-10-10T15:34:52;22.00;99.90
15765;DHT22;7983;50.744;7.086;2022-10-10T15:37:18;21.90;99.90
15765;DHT22;7983;50.744;7.086;2022-10-10T15:39:46;21.80;99.90
15765;DHT22;7983;50.744;7.086;2022-10-10T15:42:13;21.70;99.90
15765;DHT22;7983;50.744;7.086;2022-10-10T15:44:45;21.60;99.90
15765;DHT22;7983;50.744;7.086;2022-10-10T15:47:17;21.50;99.90
15765;DHT22;7983;50.744;7.086;2022-10-10T15:49:45;21.40;99.90
15765;DHT22;7983;50.744;7.086;2022-10-10T15:52:11;21.30;99.90
15765;DHT22;7983;50.744;7.086;2022-10-10T15:54:37;21.20;99.90
15765;DHT22;7983;50.744;7.086;2022-10-10T15:57:02;21.10;99.90
15765;DHT22;7983;50.744;7.086;2022-10-10T15:59:28;21.10;99.90
15765;DHT22;7983;50.744;7.086;2022-10-10T16:01:54;21.00;99.90
15765;DHT22;7983;50.744;7.086;2022-10-10T16:04:20;20.90;99.90
15765;DHT22;7983;50.744;7.086;2022-10-10T16:06:47;20.90;99.90
15765;DHT22;7983;50.744;7.086;2022-10-10T16:09:13;20.80;99.90
15765;DHT22;7983;50.744;7.086;2022-10-10T16:11:41;20.70;99.90
15765;DHT22;7983;50.744;7.086;2022-10-10T16:14:07;20.70;99.90
15765;DHT22;7983;50.744;7.086;2022-10-10T16:16:33;20.60;99.90
15765;DHT22;7983;50.744;7.086;2022-10-10T16:18:59;20.50;99.90
15765;DHT22;7983;50.744;7.086;2022-10-10T16:21:27;20.50;99.90
15765;DHT22;7983;50.744;7.086;2022-10-10T16:23:58;20.40;99.90
15765;DHT22;7983;50.744;7.086;2022-10-10T16:26:27;20.40;99.90
15765;DHT22;7983;50.744;7.086;2022-10-10T16:28:54;20.40;99.90
15765;DHT22;7983;50.744;7.086;2022-10-10T16:31:20;20.30;99.90
15765;DHT22;7983;50.744;7.086;2022-10-10T16:33:49;20.30;99.90
15765;DHT22;7983;50.744;7.086;2022-10-10T16:36:19;20.20;99.90
15765;DHT22;7983;50.744;7.086;2022-10-10T16:38:46;20.10;99.90
15765;DHT22;7983;50.744;7.086;2022-10-10T16:41:19;20.10;99.90
15765;DHT22;7983;50.744;7.086;2022-10-10T16:43:46;20.10;99.90
15765;DHT22;7983;50.744;7.086;2022-10-10T16:46:15;20.00;99.90
15765;DHT22;7983;50.744;7.086;2022-10-10T16:48:41;19.90;99.90
15765;DHT22;7983;50.744;7.086;2022-10-10T16:51:15;19.80;99.90
15765;DHT22;7983;50.744;7.086;2022-10-10T16:53:44;19.70;99.90
15765;DHT22;7983;50.744;7.086;2022-10-10T16:56:15;19.70;99.90
15765;DHT22;7983;50.744;7.086;2022-10-10T16:58:41;19.60;99.90
15765;DHT22;7983;50.744;7.086;2022-10-10T17:01:18;19.50;99.90
15765;DHT22;7983;50.744;7.086;2022-10-10T17:03:45;19.40;99.90
15765;DHT22;7983;50.744;7.086;2022-10-10T17:06:16;19.30;99.90
15765;DHT22;7983;50.744;7.086;2022-10-10T17:08:46;19.30;99.90
15765;DHT22;7983;50.744;7.086;2022-10-10T17:11:12;19.20;99.90
15765;DHT22;7983;50.744;7.086;2022-10-10T17:13:40;19.10;99.90
15765;DHT22;7983;50.744;7.086;2022-10-10T17:16:10;19.10;99.90
15765;DHT22;7983;50.744;7.086;2022-10-10T17:18:37;19.10;99.90
15765;DHT22;7983;50.744;7.086;2022-10-10T17:21:03;19.10;99.90
15765;DHT22;7983;50.744;7.086;2022-10-10T17:23:30;19.00;99.90
15765;DHT22;7983;50.744;7.086;2022-10-10T17:25:56;19.00;99.90
15765;DHT22;7983;50.744;7.086;2022-10-10T17:28:21;19.00;99.90
15765;DHT22;7983;50.744;7.086;2022-10-10T17:30:48;19.00;99.90
15765;DHT22;7983;50.744;7.086;2022-10-10T17:33:16;19.00;99.90
15765;DHT22;7983;50.744;7.086;2022-10-10T17:35:47;19.00;99.90
15765;DHT22;7983;50.744;7.086;2022-10-10T17:38:14;19.00;99.90
15765;DHT22;7983;50.744;7.086;2022-10-10T17:40:41;18.90;99.90
15765;DHT22;7983;50.744;7.086;2022-10-10T17:43:11;18.90;99.90
15765;DHT22;7983;50.744;7.086;2022-10-10T17:45:37;18.90;99.90
15765;DHT22;7983;50.744;7.086;2022-10-10T17:48:04;18.90;99.90
15765;DHT22;7983;50.744;7.086;2022-10-10T17:50:34;18.90;99.90
15765;DHT22;7983;50.744;7.086;2022-10-10T17:53:00;18.90;99.90
15765;DHT22;7983;50.744;7.086;2022-10-10T17:55:26;18.90;99.90
15765;DHT22;7983;50.744;7.086;2022-10-10T17:57:52;18.80;99.90
15765;DHT22;7983;50.744;7.086;2022-10-10T18:00:17;18.80;99.90
15765;DHT22;7983;50.744;7.086;2022-10-10T18:02:43;18.80;99.90
15765;DHT22;7983;50.744;7.086;2022-10-10T18:05:08;18.80;99.90
15765;DHT22;7983;50.744;7.086;2022-10-10T18:07:34;18.70;99.90
15765;DHT22;7983;50.744;7.086;2022-10-10T18:10:04;18.70;99.90
15765;DHT22;7983;50.744;7.086;2022-10-10T18:12:30;18.70;99.90
15765;DHT22;7983;50.744;7.086;2022-10-10T18:14:56;18.70;99.90
15765;DHT22;7983;50.744;7.086;2022-10-10T18:17:21;18.60;99.90